sensor_id;sensor_type;location;lat;lon;timestamp;P1;durP1;ratioP1;P2;durP2;ratioP2
51732;SDS011;39139;53.144;6.244;2022-09-09T00:04:18;8.95;;;5.25;;
51732;SDS011;39139;53.144;6.244;2022-09-09T00:09:53;5.88;;;4.85;;
51732;SDS011;39139;53.144;6.244;2022-09-09T00:15:13;8.15;;;4.90;;
51732;SDS011;39139;53.144;6.244;2022-09-09T00:18:00;6.97;;;4.50;;
51732;SDS011;39139;53.144;6.244;2022-09-09T00:20:58;7.57;;;4.68;;
51732;SDS011;39139;53.144;6.244;2022-09-09T00:23:38;4.63;;;4.22;;
51732;SDS011;39139;53.144;6.244;2022-09-09T00:29:05;7.68;;;4.28;;
51732;SDS011;39139;53.144;6.244;2022-09-09T00:31:39;5.38;;;4.88;;
51732;SDS011;39139;53.144;6.244;2022-09-09T00:34:09;4.35;;;3.85;;
51732;SDS011;39139;53.144;6.244;2022-09-09T00:36:37;6.97;;;4.85;;
51732;SDS011;39139;53.144;6.244;2022-09-09T00:39:04;5.55;;;4.55;;
51732;SDS011;39139;53.144;6.244;2022-09-09T00:41:40;7.55;;;5.00;;
51732;SDS011;39139;53.144;6.244;2022-09-09T00:44:25;5.97;;;4.75;;
51732;SDS011;39139;53.144;6.244;2022-09-09T00:47:17;5.15;;;4.65;;
51732;SDS011;39139;53.144;6.244;2022-09-09T00:50:22;9.63;;;4.55;;
51732;SDS011;39139;53.144;6.244;2022-09-09T00:55:48;6.20;;;4.55;;
51732;SDS011;39139;53.144;6.244;2022-09-09T00:58:32;5.18;;;4.55;;
51732;SDS011;39139;53.144;6.244;2022-09-09T01:01:05;5.75;;;5.25;;
51732;SDS011;39139;53.144;6.244;2022-09-09T01:03:45;7.18;;;5.20;;
51732;SDS011;39139;53.144;6.244;2022-09-09T01:11:55;4.47;;;4.07;;
51732;SDS011;39139;53.144;6.244;2022-09-09T01:14:27;5.53;;;4.03;;
51732;SDS011;39139;53.144;6.244;2022-09-09T01:16:56;5.13;;;4.00;;
51732;SDS011;39139;53.144;6.244;2022-09-09T01:19:36;4.75;;;4.35;;
51732;SDS011;39139;53.144;6.244;2022-09-09T01:22:12;4.30;;;3.90;;
51732;SDS011;39139;53.144;6.244;2022-09-09T01:27:37;8.07;;;4.32;;
51732;SDS011;39139;53.144;6.244;2022-09-09T01:30:08;4.07;;;3.72;;
51732;SDS011;39139;53.144;6.244;2022-09-09T01:32:47;4.88;;;4.00;;
51732;SDS011;39139;53.144;6.244;2022-09-09T01:35:17;3.70;;;3.42;;
51732;SDS011;39139;53.144;6.244;2022-09-09T01:37:48;3.90;;;3.40;;
51732;SDS011;39139;53.144;6.244;2022-09-09T01:40:14;6.15;;;3.55;;
51732;SDS011;39139;53.144;6.244;2022-09-09T01:42:40;4.68;;;3.25;;
51732;SDS011;39139;53.144;6.244;2022-09-09T01:45:06;6.40;;;3.25;;
51732;SDS011;39139;53.144;6.244;2022-09-09T01:47:32;4.38;;;3.88;;
51732;SDS011;39139;53.144;6.244;2022-09-09T01:49:57;7.30;;;3.33;;
51732;SDS011;39139;53.144;6.244;2022-09-09T01:52:24;4.55;;;3.40;;
51732;SDS011;39139;53.144;6.244;2022-09-09T01:54:50;3.67;;;3.25;;
51732;SDS011;39139;53.144;6.244;2022-09-09T01:57:21;4.38;;;3.97;;
51732;SDS011;39139;53.144;6.244;2022-09-09T01:59:51;4.35;;;3.85;;
51732;SDS011;39139;53.144;6.244;2022-09-09T02:05:41;5.45;;;3.75;;
51732;SDS011;39139;53.144;6.244;2022-09-09T02:08:15;4.55;;;4.00;;
51732;SDS011;39139;53.144;6.244;2022-09-09T02:10:56;4.50;;;3.95;;
51732;SDS011;39139;53.144;6.244;2022-09-09T02:13:26;4.45;;;3.78;;
51732;SDS011;39139;53.144;6.244;2022-09-09T02:16:14;6.70;;;4.15;;
51732;SDS011;39139;53.144;6.244;2022-09-09T02:21:30;5.05;;;4.15;;
51732;SDS011;39139;53.144;6.244;2022-09-09T02:23:58;6.95;;;4.75;;
51732;SDS011;39139;53.144;6.244;2022-09-09T02:26:25;6.78;;;5.18;;
51732;SDS011;39139;53.144;6.244;2022-09-09T02:28:52;6.68;;;5.30;;
51732;SDS011;39139;53.144;6.244;2022-09-09T02:31:22;6.15;;;5.57;;
51732;SDS011;39139;53.144;6.244;2022-09-09T02:34:00;10.20;;;5.05;;
51732;SDS011;39139;53.144;6.244;2022-09-09T02:36:29;9.60;;;5.28;;
51732;SDS011;39139;53.144;6.244;2022-09-09T02:38:58;6.57;;;5.10;;
51732;SDS011;39139;53.144;6.244;2022-09-09T02:41:32;5.35;;;4.85;;
51732;SDS011;39139;53.144;6.244;2022-09-09T02:44:00;6.88;;;5.38;;
51732;SDS011;39139;53.144;6.244;2022-09-09T02:49:02;9.20;;;6.10;;
51732;SDS011;39139;53.144;6.244;2022-09-09T02:51:44;10.20;;;5.75;;
51732;SDS011;39139;53.144;6.244;2022-09-09T02:54:32;6.97;;;6.28;;
51732;SDS011;39139;53.144;6.244;2022-09-09T02:59:30;9.07;;;6.00;;
51732;SDS011;39139;53.144;6.244;2022-09-09T03:01:56;9.50;;;7.13;;
51732;SDS011;39139;53.144;6.244;2022-09-09T03:04:21;10.95;;;6.57;;
51732;SDS011;39139;53.144;6.244;2022-09-09T03:06:49;16.88;;;7.03;;
51732;SDS011;39139;53.144;6.244;2022-09-09T03:09:15;7.38;;;6.60;;
51732;SDS011;39139;53.144;6.244;2022-09-09T03:11:40;10.57;;;6.90;;
51732;SDS011;39139;53.144;6.244;2022-09-09T03:14:06;8.00;;;6.60;;
51732;SDS011;39139;53.144;6.244;2022-09-09T03:16:32;7.13;;;5.32;;
51732;SDS011;39139;53.144;6.244;2022-09-09T03:18:59;7.18;;;6.45;;
51732;SDS011;39139;53.144;6.244;2022-09-09T03:21:25;6.88;;;6.13;;
51732;SDS011;39139;53.144;6.244;2022-09-09T03:23:51;8.30;;;6.75;;
51732;SDS011;39139;53.144;6.244;2022-09-09T03:26:16;9.93;;;7.25;;
51732;SDS011;39139;53.144;6.244;2022-09-09T03:28:42;7.90;;;6.57;;
51732;SDS011;39139;53.144;6.244;2022-09-09T03:31:09;8.43;;;6.82;;
51732;SDS011;39139;53.144;6.244;2022-09-09T03:33:36;8.95;;;6.25;;
51732;SDS011;39139;53.144;6.244;2022-09-09T03:36:02;6.82;;;5.65;;
51732;SDS011;39139;53.144;6.244;2022-09-09T03:38:28;8.60;;;6.72;;
51732;SDS011;39139;53.144;6.244;2022-09-09T03:40:54;8.50;;;6.63;;
51732;SDS011;39139;53.144;6.244;2022-09-09T03:43:25;5.85;;;5.28;;
51732;SDS011;39139;53.144;6.244;2022-09-09T03:45:52;10.60;;;7.32;;
51732;SDS011;39139;53.144;6.244;2022-09-09T03:48:18;6.43;;;5.82;;
51732;SDS011;39139;53.144;6.244;2022-09-09T03:50:47;8.65;;;5.93;;
51732;SDS011;39139;53.144;6.244;2022-09-09T03:53:15;8.43;;;5.68;;
51732;SDS011;39139;53.144;6.244;2022-09-09T03:55:46;7.63;;;6.18;;
51732;SDS011;39139;53.144;6.244;2022-09-09T03:58:13;10.10;;;5.28;;
51732;SDS011;39139;53.144;6.244;2022-09-09T04:00:39;8.45;;;6.15;;
51732;SDS011;39139;53.144;6.244;2022-09-09T04:03:07;7.60;;;5.47;;
51732;SDS011;39139;53.144;6.244;2022-09-09T04:05:34;11.57;;;6.32;;
51732;SDS011;39139;53.144;6.244;2022-09-09T04:07:59;8.60;;;4.93;;
51732;SDS011;39139;53.144;6.244;2022-09-09T04:10:25;7.22;;;5.78;;
51732;SDS011;39139;53.144;6.244;2022-09-09T04:12:51;6.97;;;5.63;;
51732;SDS011;39139;53.144;6.244;2022-09-09T04:15:17;7.15;;;6.30;;
51732;SDS011;39139;53.144;6.244;2022-09-09T04:17:43;8.88;;;5.88;;
51732;SDS011;39139;53.144;6.244;2022-09-09T04:20:08;6.18;;;5.57;;
51732;SDS011;39139;53.144;6.244;2022-09-09T04:22:37;5.95;;;5.40;;
51732;SDS011;39139;53.144;6.244;2022-09-09T04:25:04;4.95;;;4.40;;
51732;SDS011;39139;53.144;6.244;2022-09-09T04:27:31;9.48;;;5.55;;
51732;SDS011;39139;53.144;6.244;2022-09-09T04:29:56;6.25;;;5.55;;
51732;SDS011;39139;53.144;6.244;2022-09-09T04:32:22;8.13;;;5.93;;
51732;SDS011;39139;53.144;6.244;2022-09-09T04:34:49;6.60;;;4.90;;
51732;SDS011;39139;53.144;6.244;2022-09-09T04:37:15;8.43;;;5.60;;
51732;SDS011;39139;53.144;6.244;2022-09-09T04:39:40;9.23;;;6.60;;
51732;SDS011;39139;53.144;6.244;2022-09-09T04:42:06;6.40;;;5.47;;
51732;SDS011;39139;53.144;6.244;2022-09-09T04:44:32;7.28;;;5.00;;
51732;SDS011;39139;53.144;6.244;2022-09-09T04:46:57;5.10;;;4.55;;
51732;SDS011;39139;53.144;6.244;2022-09-09T04:49:23;7.22;;;5.63;;
51732;SDS011;39139;53.144;6.244;2022-09-09T04:51:49;7.15;;;5.88;;
51732;SDS011;39139;53.144;6.244;2022-09-09T04:54:14;8.45;;;5.30;;
51732;SDS011;39139;53.144;6.244;2022-09-09T04:56:40;7.82;;;6.10;;
51732;SDS011;39139;53.144;6.244;2022-09-09T04:59:07;8.27;;;6.13;;
51732;SDS011;39139;53.144;6.244;2022-09-09T05:01:33;5.50;;;5.00;;
51732;SDS011;39139;53.144;6.244;2022-09-09T05:03:59;6.13;;;5.50;;
51732;SDS011;39139;53.144;6.244;2022-09-09T05:06:24;11.82;;;8.63;;
51732;SDS011;39139;53.144;6.244;2022-09-09T05:08:50;7.22;;;6.47;;
51732;SDS011;39139;53.144;6.244;2022-09-09T05:13:52;6.90;;;5.65;;
51732;SDS011;39139;53.144;6.244;2022-09-09T05:16:19;7.57;;;6.05;;
51732;SDS011;39139;53.144;6.244;2022-09-09T05:18:45;8.02;;;5.57;;
51732;SDS011;39139;53.144;6.244;2022-09-09T05:21:12;6.85;;;5.97;;
51732;SDS011;39139;53.144;6.244;2022-09-09T05:23:39;7.15;;;6.45;;
51732;SDS011;39139;53.144;6.244;2022-09-09T05:26:05;7.97;;;6.32;;
51732;SDS011;39139;53.144;6.244;2022-09-09T05:28:33;7.88;;;6.38;;
51732;SDS011;39139;53.144;6.244;2022-09-09T05:31:02;8.20;;;5.72;;
51732;SDS011;39139;53.144;6.244;2022-09-09T05:33:30;11.43;;;6.07;;
51732;SDS011;39139;53.144;6.244;2022-09-09T05:35:57;12.95;;;6.93;;
51732;SDS011;39139;53.144;6.244;2022-09-09T05:38:28;9.32;;;6.35;;
51732;SDS011;39139;53.144;6.244;2022-09-09T05:40:54;7.20;;;5.50;;
51732;SDS011;39139;53.144;6.244;2022-09-09T05:43:22;8.93;;;5.80;;
51732;SDS011;39139;53.144;6.244;2022-09-09T05:45:58;8.15;;;6.50;;
51732;SDS011;39139;53.144;6.244;2022-09-09T05:48:29;8.27;;;6.00;;
51732;SDS011;39139;53.144;6.244;2022-09-09T05:50:56;9.18;;;6.72;;
51732;SDS011;39139;53.144;6.244;2022-09-09T05:53:21;8.18;;;6.03;;
51732;SDS011;39139;53.144;6.244;2022-09-09T05:55:47;8.57;;;6.07;;
51732;SDS011;39139;53.144;6.244;2022-09-09T05:58:13;13.45;;;6.85;;
51732;SDS011;39139;53.144;6.244;2022-09-09T06:00:40;9.00;;;6.80;;
51732;SDS011;39139;53.144;6.244;2022-09-09T06:03:06;8.45;;;6.65;;
51732;SDS011;39139;53.144;6.244;2022-09-09T06:05:31;9.65;;;7.32;;
51732;SDS011;39139;53.144;6.244;2022-09-09T06:07:57;8.18;;;6.22;;
51732;SDS011;39139;53.144;6.244;2022-09-09T06:10:23;9.38;;;7.00;;
51732;SDS011;39139;53.144;6.244;2022-09-09T06:12:48;8.63;;;6.93;;
51732;SDS011;39139;53.144;6.244;2022-09-09T06:15:17;9.75;;;7.22;;
51732;SDS011;39139;53.144;6.244;2022-09-09T06:17:42;9.32;;;7.28;;
51732;SDS011;39139;53.144;6.244;2022-09-09T06:20:10;10.93;;;7.55;;
51732;SDS011;39139;53.144;6.244;2022-09-09T06:22:36;9.57;;;7.28;;
51732;SDS011;39139;53.144;6.244;2022-09-09T06:25:04;8.57;;;7.05;;
51732;SDS011;39139;53.144;6.244;2022-09-09T06:27:29;10.18;;;7.07;;
51732;SDS011;39139;53.144;6.244;2022-09-09T06:29:55;8.50;;;7.40;;
51732;SDS011;39139;53.144;6.244;2022-09-09T06:32:21;14.07;;;7.25;;
51732;SDS011;39139;53.144;6.244;2022-09-09T06:34:46;8.68;;;7.13;;
51732;SDS011;39139;53.144;6.244;2022-09-09T06:37:14;8.48;;;6.18;;
51732;SDS011;39139;53.144;6.244;2022-09-09T06:39:40;9.48;;;6.13;;
51732;SDS011;39139;53.144;6.244;2022-09-09T06:42:06;7.68;;;6.57;;
51732;SDS011;39139;53.144;6.244;2022-09-09T06:44:33;7.63;;;6.03;;
51732;SDS011;39139;53.144;6.244;2022-09-09T06:46:59;10.52;;;5.60;;
51732;SDS011;39139;53.144;6.244;2022-09-09T06:49:24;8.98;;;6.80;;
51732;SDS011;39139;53.144;6.244;2022-09-09T06:51:50;8.73;;;7.03;;
51732;SDS011;39139;53.144;6.244;2022-09-09T06:54:17;7.00;;;6.25;;
51732;SDS011;39139;53.144;6.244;2022-09-09T06:56:43;7.35;;;5.72;;
51732;SDS011;39139;53.144;6.244;2022-09-09T06:59:10;5.60;;;4.70;;
51732;SDS011;39139;53.144;6.244;2022-09-09T07:01:41;8.82;;;6.93;;
51732;SDS011;39139;53.144;6.244;2022-09-09T07:04:08;8.85;;;5.40;;
51732;SDS011;39139;53.144;6.244;2022-09-09T07:06:43;8.48;;;5.30;;
51732;SDS011;39139;53.144;6.244;2022-09-09T07:09:10;6.00;;;5.40;;
51732;SDS011;39139;53.144;6.244;2022-09-09T07:11:41;11.02;;;6.88;;
51732;SDS011;39139;53.144;6.244;2022-09-09T07:14:09;6.78;;;5.85;;
51732;SDS011;39139;53.144;6.244;2022-09-09T07:16:38;6.03;;;5.18;;
51732;SDS011;39139;53.144;6.244;2022-09-09T07:19:08;6.68;;;5.45;;
51732;SDS011;39139;53.144;6.244;2022-09-09T07:21:34;8.95;;;5.32;;
51732;SDS011;39139;53.144;6.244;2022-09-09T07:24:00;8.35;;;5.07;;
51732;SDS011;39139;53.144;6.244;2022-09-09T07:26:27;6.15;;;4.43;;
51732;SDS011;39139;53.144;6.244;2022-09-09T07:28:54;7.82;;;5.30;;
51732;SDS011;39139;53.144;6.244;2022-09-09T07:31:24;6.35;;;4.93;;
51732;SDS011;39139;53.144;6.244;2022-09-09T07:33:51;7.07;;;5.27;;
51732;SDS011;39139;53.144;6.244;2022-09-09T07:36:24;5.45;;;4.15;;
51732;SDS011;39139;53.144;6.244;2022-09-09T07:39:02;5.53;;;4.65;;
51732;SDS011;39139;53.144;6.244;2022-09-09T07:41:33;5.82;;;4.90;;
51732;SDS011;39139;53.144;6.244;2022-09-09T07:44:05;7.93;;;4.63;;
51732;SDS011;39139;53.144;6.244;2022-09-09T07:46:33;5.70;;;4.13;;
51732;SDS011;39139;53.144;6.244;2022-09-09T07:48:59;5.15;;;4.13;;
51732;SDS011;39139;53.144;6.244;2022-09-09T07:51:27;6.53;;;4.40;;
51732;SDS011;39139;53.144;6.244;2022-09-09T07:53:55;5.18;;;4.10;;
51732;SDS011;39139;53.144;6.244;2022-09-09T07:56:26;4.75;;;4.20;;
51732;SDS011;39139;53.144;6.244;2022-09-09T07:58:54;5.10;;;3.88;;
51732;SDS011;39139;53.144;6.244;2022-09-09T08:03:52;7.53;;;4.82;;
51732;SDS011;39139;53.144;6.244;2022-09-09T08:06:20;7.53;;;4.68;;
51732;SDS011;39139;53.144;6.244;2022-09-09T08:08:49;5.20;;;4.47;;
51732;SDS011;39139;53.144;6.244;2022-09-09T08:11:16;5.50;;;4.40;;
51732;SDS011;39139;53.144;6.244;2022-09-09T08:13:42;4.22;;;3.83;;
51732;SDS011;39139;53.144;6.244;2022-09-09T08:16:09;5.75;;;2.97;;
51732;SDS011;39139;53.144;6.244;2022-09-09T08:18:37;6.22;;;4.05;;
51732;SDS011;39139;53.144;6.244;2022-09-09T08:21:14;5.43;;;3.83;;
51732;SDS011;39139;53.144;6.244;2022-09-09T08:23:43;4.47;;;3.72;;
51732;SDS011;39139;53.144;6.244;2022-09-09T08:26:12;3.60;;;3.30;;
51732;SDS011;39139;53.144;6.244;2022-09-09T08:28:39;5.25;;;3.25;;
51732;SDS011;39139;53.144;6.244;2022-09-09T08:31:28;5.63;;;3.72;;
51732;SDS011;39139;53.144;6.244;2022-09-09T08:34:02;6.97;;;3.58;;
51732;SDS011;39139;53.144;6.244;2022-09-09T08:36:30;5.55;;;3.20;;
51732;SDS011;39139;53.144;6.244;2022-09-09T08:39:01;3.35;;;2.90;;
51732;SDS011;39139;53.144;6.244;2022-09-09T08:46:58;6.35;;;4.63;;
51732;SDS011;39139;53.144;6.244;2022-09-09T08:51:54;3.85;;;3.05;;
51732;SDS011;39139;53.144;6.244;2022-09-09T08:54:22;6.78;;;4.07;;
51732;SDS011;39139;53.144;6.244;2022-09-09T08:56:48;4.32;;;2.90;;
51732;SDS011;39139;53.144;6.244;2022-09-09T08:59:16;5.72;;;4.38;;
51732;SDS011;39139;53.144;6.244;2022-09-09T09:01:52;6.55;;;3.63;;
51732;SDS011;39139;53.144;6.244;2022-09-09T09:12:41;4.85;;;2.72;;
51732;SDS011;39139;53.144;6.244;2022-09-09T09:15:19;3.88;;;2.85;;
51732;SDS011;39139;53.144;6.244;2022-09-09T09:20:15;3.33;;;2.30;;
51732;SDS011;39139;53.144;6.244;2022-09-09T09:22:47;6.10;;;3.10;;
51732;SDS011;39139;53.144;6.244;2022-09-09T09:25:20;4.70;;;3.20;;
51732;SDS011;39139;53.144;6.244;2022-09-09T09:31:04;11.35;;;3.25;;
51732;SDS011;39139;53.144;6.244;2022-09-09T09:36:06;9.82;;;3.80;;
51732;SDS011;39139;53.144;6.244;2022-09-09T09:38:33;8.95;;;3.17;;
51732;SDS011;39139;53.144;6.244;2022-09-09T09:41:00;3.08;;;2.10;;
51732;SDS011;39139;53.144;6.244;2022-09-09T09:43:36;4.07;;;2.10;;
51732;SDS011;39139;53.144;6.244;2022-09-09T09:46:05;6.67;;;2.47;;
51732;SDS011;39139;53.144;6.244;2022-09-09T09:48:43;2.03;;;1.45;;
51732;SDS011;39139;53.144;6.244;2022-09-09T09:51:11;8.35;;;2.30;;
51732;SDS011;39139;53.144;6.244;2022-09-09T09:53:41;6.05;;;2.42;;
51732;SDS011;39139;53.144;6.244;2022-09-09T09:56:11;4.05;;;1.90;;
51732;SDS011;39139;53.144;6.244;2022-09-09T10:01:23;4.30;;;1.65;;
51732;SDS011;39139;53.144;6.244;2022-09-09T10:04:12;7.05;;;2.30;;
51732;SDS011;39139;53.144;6.244;2022-09-09T10:06:41;6.90;;;2.03;;
51732;SDS011;39139;53.144;6.244;2022-09-09T10:15:02;6.57;;;3.00;;
51732;SDS011;39139;53.144;6.244;2022-09-09T10:20:32;6.30;;;2.03;;
51732;SDS011;39139;53.144;6.244;2022-09-09T10:23:21;4.80;;;1.30;;
51732;SDS011;39139;53.144;6.244;2022-09-09T10:35:44;3.65;;;1.10;;
51732;SDS011;39139;53.144;6.244;2022-09-09T10:40:38;2.83;;;1.40;;
51732;SDS011;39139;53.144;6.244;2022-09-09T10:43:17;5.90;;;1.55;;
51732;SDS011;39139;53.144;6.244;2022-09-09T10:54:56;1.17;;;0.98;;
51732;SDS011;39139;53.144;6.244;2022-09-09T11:00:05;1.75;;;1.33;;
51732;SDS011;39139;53.144;6.244;2022-09-09T11:02:39;7.40;;;1.45;;
51732;SDS011;39139;53.144;6.244;2022-09-09T11:05:09;4.65;;;1.05;;
51732;SDS011;39139;53.144;6.244;2022-09-09T11:11:17;6.07;;;1.27;;
51732;SDS011;39139;53.144;6.244;2022-09-09T11:28:03;7.70;;;0.90;;
51732;SDS011;39139;53.144;6.244;2022-09-09T11:30:45;3.70;;;0.95;;
51732;SDS011;39139;53.144;6.244;2022-09-09T11:39:26;3.40;;;1.13;;
51732;SDS011;39139;53.144;6.244;2022-09-09T11:41:51;6.25;;;1.13;;
51732;SDS011;39139;53.144;6.244;2022-09-09T11:44:18;3.53;;;0.70;;
51732;SDS011;39139;53.144;6.244;2022-09-09T11:46:53;2.90;;;0.77;;
51732;SDS011;39139;53.144;6.244;2022-09-09T11:52:10;3.88;;;1.20;;
51732;SDS011;39139;53.144;6.244;2022-09-09T11:54:44;3.45;;;1.08;;
51732;SDS011;39139;53.144;6.244;2022-09-09T11:57:27;4.03;;;0.77;;
51732;SDS011;39139;53.144;6.244;2022-09-09T12:00:02;4.07;;;1.17;;
51732;SDS011;39139;53.144;6.244;2022-09-09T12:02:29;4.70;;;1.00;;
51732;SDS011;39139;53.144;6.244;2022-09-09T12:05:07;4.68;;;1.23;;
51732;SDS011;39139;53.144;6.244;2022-09-09T12:12:54;2.67;;;1.15;;
51732;SDS011;39139;53.144;6.244;2022-09-09T12:15:22;5.90;;;1.33;;
51732;SDS011;39139;53.144;6.244;2022-09-09T12:17:54;3.25;;;1.02;;
51732;SDS011;39139;53.144;6.244;2022-09-09T12:20:23;4.47;;;0.70;;
51732;SDS011;39139;53.144;6.244;2022-09-09T12:28:18;1.77;;;0.75;;
51732;SDS011;39139;53.144;6.244;2022-09-09T12:33:36;5.57;;;0.95;;
51732;SDS011;39139;53.144;6.244;2022-09-09T12:36:05;3.17;;;1.25;;
51732;SDS011;39139;53.144;6.244;2022-09-09T12:38:38;4.45;;;1.45;;
51732;SDS011;39139;53.144;6.244;2022-09-09T12:41:05;2.97;;;0.88;;
51732;SDS011;39139;53.144;6.244;2022-09-09T12:43:44;3.78;;;0.77;;
51732;SDS011;39139;53.144;6.244;2022-09-09T12:46:12;2.97;;;0.98;;
51732;SDS011;39139;53.144;6.244;2022-09-09T12:49:04;2.45;;;1.13;;
51732;SDS011;39139;53.144;6.244;2022-09-09T12:51:32;5.32;;;1.40;;
51732;SDS011;39139;53.144;6.244;2022-09-09T12:53:59;3.45;;;0.80;;
51732;SDS011;39139;53.144;6.244;2022-09-09T12:56:26;6.38;;;0.90;;
51732;SDS011;39139;53.144;6.244;2022-09-09T12:58:55;2.10;;;0.70;;
51732;SDS011;39139;53.144;6.244;2022-09-09T13:01:25;1.95;;;0.70;;
51732;SDS011;39139;53.144;6.244;2022-09-09T13:03:53;2.33;;;1.27;;
51732;SDS011;39139;53.144;6.244;2022-09-09T13:06:23;2.10;;;0.82;;
51732;SDS011;39139;53.144;6.244;2022-09-09T13:08:51;5.40;;;1.17;;
51732;SDS011;39139;53.144;6.244;2022-09-09T13:11:22;3.90;;;0.93;;
51732;SDS011;39139;53.144;6.244;2022-09-09T13:13:54;5.47;;;0.95;;
51732;SDS011;39139;53.144;6.244;2022-09-09T13:16:31;4.63;;;1.13;;
51732;SDS011;39139;53.144;6.244;2022-09-09T13:19:00;4.50;;;0.90;;
51732;SDS011;39139;53.144;6.244;2022-09-09T13:21:31;2.60;;;0.98;;
51732;SDS011;39139;53.144;6.244;2022-09-09T13:24:03;5.68;;;1.10;;
51732;SDS011;39139;53.144;6.244;2022-09-09T13:26:32;4.60;;;1.30;;
51732;SDS011;39139;53.144;6.244;2022-09-09T13:32:03;6.18;;;1.08;;
51732;SDS011;39139;53.144;6.244;2022-09-09T13:34:40;7.03;;;1.33;;
51732;SDS011;39139;53.144;6.244;2022-09-09T13:37:22;4.50;;;1.85;;
51732;SDS011;39139;53.144;6.244;2022-09-09T13:39:59;2.47;;;1.00;;
51732;SDS011;39139;53.144;6.244;2022-09-09T13:42:28;1.83;;;0.80;;
51732;SDS011;39139;53.144;6.244;2022-09-09T13:44:56;3.60;;;1.17;;
51732;SDS011;39139;53.144;6.244;2022-09-09T13:47:27;2.75;;;0.73;;
51732;SDS011;39139;53.144;6.244;2022-09-09T13:49:56;2.83;;;1.05;;
51732;SDS011;39139;53.144;6.244;2022-09-09T13:52:22;6.85;;;0.88;;
51732;SDS011;39139;53.144;6.244;2022-09-09T13:54:49;4.72;;;1.02;;
51732;SDS011;39139;53.144;6.244;2022-09-09T13:57:17;2.83;;;1.17;;
51732;SDS011;39139;53.144;6.244;2022-09-09T13:59:45;2.30;;;0.70;;
51732;SDS011;39139;53.144;6.244;2022-09-09T14:02:12;2.53;;;1.00;;
51732;SDS011;39139;53.144;6.244;2022-09-09T14:04:38;6.95;;;1.25;;
51732;SDS011;39139;53.144;6.244;2022-09-09T14:07:07;1.80;;;0.60;;
51732;SDS011;39139;53.144;6.244;2022-09-09T14:09:37;1.05;;;0.47;;
51732;SDS011;39139;53.144;6.244;2022-09-09T14:12:02;1.65;;;0.28;;
51732;SDS011;39139;53.144;6.244;2022-09-09T14:14:29;4.22;;;0.60;;
51732;SDS011;39139;53.144;6.244;2022-09-09T14:16:55;1.45;;;0.73;;
51732;SDS011;39139;53.144;6.244;2022-09-09T14:19:20;2.53;;;0.60;;
51732;SDS011;39139;53.144;6.244;2022-09-09T14:21:46;4.95;;;1.02;;
51732;SDS011;39139;53.144;6.244;2022-09-09T14:24:12;1.33;;;0.38;;
51732;SDS011;39139;53.144;6.244;2022-09-09T14:26:37;0.43;;;0.38;;
51732;SDS011;39139;53.144;6.244;2022-09-09T14:29:03;2.83;;;0.70;;
51732;SDS011;39139;53.144;6.244;2022-09-09T14:31:29;5.35;;;0.65;;
51732;SDS011;39139;53.144;6.244;2022-09-09T14:33:55;1.95;;;0.25;;
51732;SDS011;39139;53.144;6.244;2022-09-09T14:36:20;1.60;;;0.20;;
51732;SDS011;39139;53.144;6.244;2022-09-09T14:38:46;1.33;;;0.30;;
51732;SDS011;39139;53.144;6.244;2022-09-09T14:41:16;2.05;;;0.35;;
51732;SDS011;39139;53.144;6.244;2022-09-09T14:43:43;1.70;;;0.22;;
51732;SDS011;39139;53.144;6.244;2022-09-09T14:46:13;1.45;;;0.43;;
51732;SDS011;39139;53.144;6.244;2022-09-09T14:48:40;1.27;;;0.55;;
51732;SDS011;39139;53.144;6.244;2022-09-09T14:51:07;2.00;;;0.47;;
51732;SDS011;39139;53.144;6.244;2022-09-09T14:53:34;1.38;;;0.40;;
51732;SDS011;39139;53.144;6.244;2022-09-09T14:56:04;1.73;;;0.35;;
51732;SDS011;39139;53.144;6.244;2022-09-09T14:58:34;1.00;;;0.77;;
51732;SDS011;39139;53.144;6.244;2022-09-09T15:01:04;1.13;;;0.52;;
51732;SDS011;39139;53.144;6.244;2022-09-09T15:03:31;2.85;;;0.88;;
51732;SDS011;39139;53.144;6.244;2022-09-09T15:05:58;3.92;;;0.73;;
51732;SDS011;39139;53.144;6.244;2022-09-09T15:08:29;2.38;;;0.80;;
51732;SDS011;39139;53.144;6.244;2022-09-09T15:10:58;2.03;;;1.15;;
51732;SDS011;39139;53.144;6.244;2022-09-09T15:13:25;2.70;;;0.50;;
51732;SDS011;39139;53.144;6.244;2022-09-09T15:15:51;3.60;;;0.88;;
51732;SDS011;39139;53.144;6.244;2022-09-09T15:18:20;3.50;;;0.75;;
51732;SDS011;39139;53.144;6.244;2022-09-09T15:20:46;2.28;;;0.77;;
51732;SDS011;39139;53.144;6.244;2022-09-09T15:23:12;5.72;;;0.70;;
51732;SDS011;39139;53.144;6.244;2022-09-09T15:25:39;1.02;;;0.30;;
51732;SDS011;39139;53.144;6.244;2022-09-09T15:28:24;4.07;;;1.20;;
51732;SDS011;39139;53.144;6.244;2022-09-09T15:30:51;0.98;;;0.50;;
51732;SDS011;39139;53.144;6.244;2022-09-09T15:33:18;1.95;;;0.43;;
51732;SDS011;39139;53.144;6.244;2022-09-09T15:35:44;1.38;;;0.55;;
51732;SDS011;39139;53.144;6.244;2022-09-09T15:38:10;2.30;;;0.70;;
51732;SDS011;39139;53.144;6.244;2022-09-09T15:40:38;2.65;;;0.65;;
51732;SDS011;39139;53.144;6.244;2022-09-09T15:43:04;2.47;;;0.38;;
51732;SDS011;39139;53.144;6.244;2022-09-09T15:45:31;0.38;;;0.30;;
51732;SDS011;39139;53.144;6.244;2022-09-09T15:47:58;0.28;;;0.13;;
51732;SDS011;39139;53.144;6.244;2022-09-09T15:50:25;0.60;;;0.10;;
51732;SDS011;39139;53.144;6.244;2022-09-09T15:52:51;0.73;;;0.40;;
51732;SDS011;39139;53.144;6.244;2022-09-09T15:55:18;0.73;;;0.25;;
51732;SDS011;39139;53.144;6.244;2022-09-09T15:57:45;1.08;;;0.20;;
51732;SDS011;39139;53.144;6.244;2022-09-09T16:00:11;0.43;;;0.10;;
51732;SDS011;39139;53.144;6.244;2022-09-09T16:02:38;1.35;;;0.10;;
51732;SDS011;39139;53.144;6.244;2022-09-09T16:05:04;0.70;;;0.20;;
51732;SDS011;39139;53.144;6.244;2022-09-09T16:07:30;0.10;;;0.10;;
51732;SDS011;39139;53.144;6.244;2022-09-09T16:09:56;1.83;;;0.38;;
51732;SDS011;39139;53.144;6.244;2022-09-09T16:12:22;1.38;;;0.63;;
51732;SDS011;39139;53.144;6.244;2022-09-09T16:14:47;0.50;;;0.30;;
51732;SDS011;39139;53.144;6.244;2022-09-09T16:17:13;0.60;;;0.43;;
51732;SDS011;39139;53.144;6.244;2022-09-09T16:19:40;1.30;;;0.63;;
51732;SDS011;39139;53.144;6.244;2022-09-09T16:22:05;1.80;;;0.52;;
51732;SDS011;39139;53.144;6.244;2022-09-09T16:24:31;1.65;;;0.50;;
51732;SDS011;39139;53.144;6.244;2022-09-09T16:26:57;1.08;;;0.40;;
51732;SDS011;39139;53.144;6.244;2022-09-09T16:29:23;2.90;;;0.63;;
51732;SDS011;39139;53.144;6.244;2022-09-09T16:31:52;1.85;;;0.40;;
51732;SDS011;39139;53.144;6.244;2022-09-09T16:34:19;3.30;;;0.70;;
51732;SDS011;39139;53.144;6.244;2022-09-09T16:36:45;1.25;;;0.60;;
51732;SDS011;39139;53.144;6.244;2022-09-09T16:39:14;1.20;;;0.22;;
51732;SDS011;39139;53.144;6.244;2022-09-09T16:41:41;0.98;;;0.65;;
51732;SDS011;39139;53.144;6.244;2022-09-09T16:44:09;2.03;;;0.57;;
51732;SDS011;39139;53.144;6.244;2022-09-09T16:46:37;4.28;;;1.10;;
51732;SDS011;39139;53.144;6.244;2022-09-09T16:49:05;2.00;;;0.75;;
51732;SDS011;39139;53.144;6.244;2022-09-09T16:51:36;2.00;;;0.68;;
51732;SDS011;39139;53.144;6.244;2022-09-09T16:54:04;4.43;;;1.05;;
51732;SDS011;39139;53.144;6.244;2022-09-09T16:56:32;1.70;;;0.60;;
51732;SDS011;39139;53.144;6.244;2022-09-09T16:59:02;2.15;;;0.50;;
51732;SDS011;39139;53.144;6.244;2022-09-09T17:01:30;3.50;;;0.75;;
51732;SDS011;39139;53.144;6.244;2022-09-09T17:04:03;1.98;;;0.82;;
51732;SDS011;39139;53.144;6.244;2022-09-09T17:06:30;2.28;;;0.77;;
51732;SDS011;39139;53.144;6.244;2022-09-09T17:09:00;1.88;;;0.80;;
51732;SDS011;39139;53.144;6.244;2022-09-09T17:11:28;1.77;;;0.60;;
51732;SDS011;39139;53.144;6.244;2022-09-09T17:13:55;0.50;;;0.50;;
51732;SDS011;39139;53.144;6.244;2022-09-09T17:16:23;1.25;;;1.05;;
51732;SDS011;39139;53.144;6.244;2022-09-09T17:18:52;3.70;;;0.60;;
51732;SDS011;39139;53.144;6.244;2022-09-09T17:21:20;1.85;;;0.60;;
51732;SDS011;39139;53.144;6.244;2022-09-09T17:23:48;1.77;;;0.57;;